Time;durP1;ratioP1;P1;durP2;ratioP2;P2;SDS_P1;SDS_P2;PMS_P1;PMS_P2;Temp;Humidity;BMP_temperature;BMP_pressure;BME280_temperature;BME280_humidity;BME280_pressure;Samples;Min_cycle;Max_cycle;Signal;HPM_P1;HPM_P2
2023/03/11 00:00:44;;;;;;;6.03;3.78;;;1.60;99.90;;;-0.18;100.00;98811.63;4968195;28;20034;-81
2023/03/11 00:03:13;;;;;;;6.65;4.13;;;1.60;99.90;;;-0.19;100.00;98818.53;4949695;28;20053;-81
2023/03/11 00:05:42;;;;;;;8.73;4.75;;;1.60;99.90;;;-0.24;100.00;98818.69;4940250;28;20129;-81
2023/03/11 00:08:21;;;;;;;12.43;5.03;;;1.60;99.90;;;-0.21;100.00;98839.28;4923051;28;20042;-81
2023/03/11 00:10:54;;;;;;;7.65;4.50;;;1.60;99.90;;;-0.21;100.00;98849.63;4917784;28;20034;-82
2023/03/11 00:13:20;;;;;;;10.18;5.90;;;1.60;99.90;;;-0.21;100.00;98854.78;4955590;28;20030;-81
2023/03/11 00:15:49;;;;;;;10.60;5.68;;;1.60;99.90;;;-0.19;100.00;98847.00;4923251;28;20109;-81
2023/03/11 00:18:16;;;;;;;13.60;7.05;;;1.70;99.90;;;-0.13;100.00;98859.72;4943140;28;20038;-81
2023/03/11 00:20:45;;;;;;;17.08;6.75;;;1.70;99.90;;;-0.14;100.00;98863.19;4916656;28;20408;-81
2023/03/11 00:23:13;;;;;;;16.90;6.88;;;1.70;99.90;;;-0.09;100.00;98869.06;4946821;28;20648;-81
2023/03/11 00:25:53;;;;;;;15.52;5.82;;;1.70;99.90;;;-0.05;100.00;98869.81;4945741;28;20042;-82
2023/03/11 00:28:21;;;;;;;11.77;4.90;;;1.80;99.90;;;-0.06;100.00;98870.72;4952389;28;20036;-81
2023/03/11 00:30:56;;;;;;;11.23;5.60;;;1.70;99.90;;;-0.07;100.00;98876.78;4970773;28;21512;-83
2023/03/11 00:33:22;;;;;;;12.07;6.32;;;1.70;99.90;;;-0.09;100.00;98878.56;4915451;28;20095;-81
2023/03/11 00:35:49;;;;;;;11.52;5.80;;;1.70;99.90;;;-0.10;100.00;98882.91;4951861;28;20063;-81
2023/03/11 00:38:24;;;;;;;6.63;3.88;;;1.70;99.90;;;-0.13;100.00;98883.00;4908049;28;20115;-82
2023/03/11 00:40:50;;;;;;;11.75;5.82;;;1.70;99.90;;;-0.10;100.00;98889.81;4915352;28;20033;-82
2023/03/11 00:43:16;;;;;;;11.57;3.72;;;1.70;99.90;;;-0.19;100.00;98890.97;4926926;28;20510;-83
2023/03/11 00:45:52;;;;;;;8.82;4.93;;;1.70;99.90;;;-0.18;100.00;98899.56;4976608;28;20313;-81
2023/03/11 00:48:18;;;;;;;11.35;5.38;;;1.70;99.90;;;-0.16;100.00;98910.72;4924367;28;20772;-83
2023/03/11 00:50:44;;;;;;;12.02;6.35;;;1.70;99.90;;;-0.11;100.00;98906.22;4910212;28;20084;-81
2023/03/11 00:53:10;;;;;;;12.13;4.78;;;1.70;99.90;;;-0.09;100.00;98909.63;4916092;28;20026;-82
2023/03/11 00:55:42;;;;;;;16.48;8.07;;;1.70;99.90;;;-0.06;100.00;98912.13;4919718;28;20172;-81
2023/03/11 00:58:09;;;;;;;12.85;6.22;;;1.70;99.90;;;-0.12;100.00;98914.91;4919816;28;20121;-81
2023/03/11 01:00:35;;;;;;;19.40;6.03;;;1.70;99.90;;;-0.12;100.00;98920.06;4939062;28;20042;-81
2023/03/11 01:03:01;;;;;;;6.50;3.22;;;1.70;99.90;;;-0.19;100.00;98922.00;4977517;28;20071;-81
2023/03/11 01:05:32;;;;;;;10.90;5.38;;;1.70;99.90;;;-0.19;100.00;98932.34;4945322;28;20037;-81
2023/03/11 01:08:00;;;;;;;13.20;5.28;;;1.60;99.90;;;-0.24;100.00;98932.50;4944859;28;20039;-81
2023/03/11 01:10:27;;;;;;;6.50;3.45;;;1.60;99.90;;;-0.26;100.00;98939.47;4904004;28;20037;-81
2023/03/11 01:12:53;;;;;;;12.38;6.57;;;1.60;99.90;;;-0.23;100.00;98946.28;4926176;28;20109;-81
2023/03/11 01:15:32;;;;;;;12.57;5.80;;;1.60;99.90;;;-0.19;100.00;98940.13;4938636;28;20038;-80
2023/03/11 01:18:04;;;;;;;10.60;5.18;;;1.70;99.90;;;-0.15;100.00;98961.53;4950645;28;20046;-81
2023/03/11 01:20:31;;;;;;;17.27;6.35;;;1.70;99.90;;;-0.11;100.00;98963.16;4959582;28;20594;-81
2023/03/11 01:22:57;;;;;;;9.63;3.53;;;1.70;99.90;;;-0.16;100.00;98971.06;4958674;28;20038;-80
2023/03/11 01:25:23;;;;;;;6.28;2.90;;;1.60;99.90;;;-0.29;100.00;98960.22;4950516;28;20577;-80
2023/03/11 01:27:50;;;;;;;7.18;3.45;;;1.50;99.90;;;-0.35;100.00;98970.75;4932525;28;20093;-80
2023/03/11 01:30:21;;;;;;;6.32;2.85;;;1.50;99.90;;;-0.41;100.00;98976.16;4955615;28;20662;-82
2023/03/11 01:32:51;;;;;;;6.25;2.97;;;1.40;99.90;;;-0.51;100.00;98978.13;4929694;28;20055;-82
2023/03/11 01:35:20;;;;;;;11.45;5.20;;;1.40;99.90;;;-0.48;100.00;98990.97;4914112;28;20102;-81
2023/03/11 01:37:51;;;;;;;14.07;5.75;;;1.40;99.90;;;-0.43;100.00;99001.19;4941719;28;20047;-80
2023/03/11 01:40:32;;;;;;;9.55;5.10;;;1.40;99.90;;;-0.40;100.00;99000.25;4910500;28;20690;-81
2023/03/11 01:42:59;;;;;;;7.75;4.03;;;1.50;99.90;;;-0.38;100.00;99007.06;4924991;28;20513;-81
2023/03/11 01:45:37;;;;;;;10.23;4.70;;;1.50;99.90;;;-0.35;100.00;99021.66;4933203;28;20117;-80
2023/03/11 01:48:03;;;;;;;16.42;6.30;;;1.40;99.90;;;-0.38;100.00;99027.75;4971748;28;20421;-81
2023/03/11 01:50:40;;;;;;;13.77;5.38;;;1.50;99.90;;;-0.32;100.00;99026.75;4951326;28;20056;-81
2023/03/11 01:53:07;;;;;;;21.15;6.15;;;1.50;99.90;;;-0.32;100.00;99035.34;4922748;28;20045;-80
2023/03/11 01:55:33;;;;;;;19.35;7.15;;;1.50;99.90;;;-0.31;100.00;99033.59;4943247;28;20057;-82
2023/03/11 01:58:04;;;;;;;20.02;7.93;;;1.50;99.90;;;-0.31;100.00;99038.78;4958478;28;20084;-82
2023/03/11 02:00:30;;;;;;;16.95;6.88;;;1.50;99.90;;;-0.34;100.00;99049.22;4955624;28;20037;-82
2023/03/11 02:03:00;;;;;;;10.27;5.63;;;1.50;99.90;;;-0.35;100.00;99043.19;4922828;28;20057;-80
2023/03/11 02:05:32;;;;;;;16.27;7.18;;;1.50;99.90;;;-0.37;100.00;99050.13;4931535;28;20037;-80
2023/03/11 02:08:00;;;;;;;10.55;6.07;;;1.50;99.90;;;-0.36;100.00;99064.78;4936271;28;20079;-80
2023/03/11 02:10:26;;;;;;;13.68;5.53;;;1.50;99.90;;;-0.35;100.00;99079.38;4918571;28;20026;-80
2023/03/11 02:12:53;;;;;;;16.10;5.75;;;1.50;99.90;;;-0.33;100.00;99075.00;4932330;28;20050;-80
2023/03/11 02:15:23;;;;;;;18.08;6.47;;;1.50;99.90;;;-0.33;100.00;99087.94;4920372;28;20054;-81
2023/03/11 02:17:49;;;;;;;10.52;3.78;;;1.50;99.90;;;-0.40;100.00;99091.59;4934982;28;20039;-81
2023/03/11 02:20:47;;;;;;;12.75;4.80;;;1.40;99.90;;;-0.48;100.00;99084.06;4942349;28;20120;-80
2023/03/11 02:23:21;;;;;;;14.05;3.53;;;1.30;99.90;;;-0.55;100.00;99092.03;4922267;28;20053;-80
2023/03/11 02:25:56;;;;;;;9.45;4.57;;;1.30;99.90;;;-0.55;100.00;99089.44;4974329;28;20042;-81
2023/03/11 02:28:48;;;;;;;10.30;3.85;;;1.30;99.90;;;-0.53;100.00;99096.28;4958123;28;20053;-81
2023/03/11 02:31:15;;;;;;;5.40;3.25;;;1.30;99.90;;;-0.58;100.00;99098.16;4964354;23;20038;-82
2023/03/11 02:33:53;;;;;;;8.23;4.53;;;1.30;99.90;;;-0.58;100.00;99102.44;4945726;28;20579;-82
2023/03/11 02:36:46;;;;;;;5.50;3.28;;;1.30;99.90;;;-0.62;100.00;99112.88;4959940;28;20033;-81
2023/03/11 02:39:12;;;;;;;8.90;4.35;;;1.20;99.90;;;-0.61;100.00;99118.88;4969244;28;20116;-81
2023/03/11 02:41:50;;;;;;;9.43;4.53;;;1.30;99.90;;;-0.59;100.00;99129.19;4947071;28;20130;-82
2023/03/11 02:44:19;;;;;;;13.85;5.80;;;1.20;99.90;;;-0.58;100.00;99128.28;4954972;28;20036;-82
2023/03/11 02:46:55;;;;;;;13.90;6.47;;;;;;;-0.56;100.00;99142.03;4973889;28;20065;-82
2023/03/11 02:49:23;;;;;;;8.60;5.05;;;;;;;-0.58;100.00;99139.50;4929274;28;20083;-82
2023/03/11 02:51:51;;;;;;;8.77;3.85;;;1.30;99.90;;;-0.63;100.00;99147.38;5008835;22;20045;-83
2023/03/11 02:54:23;;;;;;;6.30;3.72;;;1.20;99.90;;;-0.65;100.00;99149.16;4985048;28;20039;-82
2023/03/11 02:56:52;;;;;;;8.20;4.50;;;1.20;99.90;;;-0.63;100.00;99156.88;4977420;28;20045;-83
2023/03/11 02:59:28;;;;;;;9.40;3.63;;;1.20;99.90;;;-0.66;100.00;99159.53;4923923;28;20518;-82
2023/03/11 03:01:54;;;;;;;6.22;3.00;;;1.10;99.90;;;-0.71;100.00;99164.00;4919515;28;20534;-81
2023/03/11 03:04:32;;;;;;;17.13;4.65;;;1.10;99.90;;;-0.72;100.00;99170.88;4910640;28;20045;-82
2023/03/11 03:07:01;;;;;;;7.30;3.85;;;;;;;-0.76;100.00;99174.41;4926331;28;20046;-81
2023/03/11 03:09:35;;;;;;;9.23;3.53;;;;;;;-0.80;100.00;99182.28;4947007;28;20045;-80
2023/03/11 03:12:03;;;;;;;11.07;3.65;;;1.00;99.90;;;-0.91;100.00;99183.41;4962243;23;20038;-82
2023/03/11 03:14:45;;;;;;;11.40;5.22;;;1.00;99.90;;;-0.85;100.00;99196.16;4976120;28;20076;-82
2023/03/11 03:17:19;;;;;;;13.85;4.47;;;1.00;99.90;;;-0.89;100.00;99191.13;4942448;28;20039;-81
2023/03/11 03:19:45;;;;;;;6.03;3.70;;;0.40;99.90;;;-0.87;100.00;99207.44;4978111;28;20068;-82
2023/03/11 03:22:11;;;;;;;14.38;4.20;;;1.00;99.90;;;-0.89;100.00;99191.13;4977760;28;20432;-81
2023/03/11 03:24:47;;;;;;;;;;;;;;;;;;;;;
2023/03/11 03:27:13;;;;;;;12.73;4.70;;;1.00;99.90;;;-0.85;100.00;99205.66;4966081;28;20327;-80
2023/03/11 03:29:39;;;;;;;11.13;4.00;;;1.00;99.90;;;-0.85;100.00;99227.19;4969349;28;20066;-81
2023/03/11 03:32:05;;;;;;;6.40;3.50;;;1.00;99.90;;;-0.80;100.00;99221.06;5033403;22;20133;-80
2023/03/11 03:34:57;;;;;;;11.35;4.28;;;1.10;99.90;;;-0.73;100.00;99231.22;4984416;28;20112;-82
2023/03/11 03:37:34;;;;;;;10.63;4.20;;;1.10;99.90;;;-0.64;100.00;99253.41;4943351;28;20068;-80
2023/03/11 03:40:14;;;;;;;6.47;3.13;;;1.20;99.90;;;-0.66;100.00;99250.00;4919141;28;20053;-81
2023/03/11 03:42:39;;;;;;;10.20;4.95;;;1.20;99.90;;;-0.59;100.00;99261.91;4964524;28;20039;-81
2023/03/11 03:45:07;;;;;;;10.75;5.05;;;1.30;99.90;;;-0.53;100.00;99264.34;4969910;28;20505;-80
2023/03/11 03:47:43;;;;;;;11.02;4.55;;;1.30;99.90;;;-0.50;100.00;99277.19;4950800;28;20034;-79
2023/03/11 03:50:13;;;;;;;13.98;4.70;;;1.30;99.90;;;-0.47;100.00;99266.78;4955209;28;20041;-80
2023/03/11 03:52:44;;;;;;;12.27;5.03;;;1.30;99.90;;;-0.44;100.00;99284.78;4954891;28;20073;-81
2023/03/11 03:55:12;;;;;;;16.67;6.05;;;1.40;99.90;;;-0.45;100.00;99287.44;4945202;28;20033;-81
2023/03/11 03:57:40;;;;;;;11.32;5.78;;;1.40;99.90;;;-0.44;100.00;99294.28;4964188;28;20033;-81
2023/03/11 04:00:10;;;;;;;9.32;5.38;;;1.40;99.90;;;-0.46;100.00;99298.66;4926444;28;20083;-80
2023/03/11 04:02:36;;;;;;;14.60;4.60;;;1.40;99.90;;;-0.48;100.00;99301.25;4974190;28;20073;-81
2023/03/11 04:05:02;;;;;;;11.27;5.38;;;1.40;99.90;;;-0.48;100.00;99308.19;4937016;28;20415;-79
2023/03/11 04:07:31;;;;;;;13.15;5.03;;;1.40;99.90;;;-0.47;100.00;99315.06;4952767;28;20405;-81
2023/03/11 04:09:57;;;;;;;10.10;4.18;;;1.30;99.90;;;-0.47;100.00;99323.66;4945324;28;20383;-81
2023/03/11 04:12:30;;;;;;;6.03;3.83;;;1.30;99.90;;;-0.50;100.00;99315.97;4999837;22;20047;-81
2023/03/11 04:14:56;;;;;;;12.15;4.47;;;1.30;99.90;;;-0.49;100.00;99319.41;4962871;28;20044;-80
2023/03/11 04:17:22;;;;;;;11.80;5.00;;;1.40;99.90;;;-0.48;100.00;99326.28;4979634;28;20203;-80
2023/03/11 04:19:47;;;;;;;11.27;4.68;;;1.30;99.90;;;-0.50;100.00;99333.22;4969339;28;20095;-80
2023/03/11 04:22:13;;;;;;;7.90;4.68;;;1.30;99.90;;;-0.50;100.00;99333.22;4939906;28;20416;-80
2023/03/11 04:24:44;;;;;;;10.15;5.40;;;1.30;99.90;;;-0.49;100.00;99337.53;4944183;28;20097;-83
2023/03/11 04:27:10;;;;;;;14.50;4.60;;;1.30;99.90;;;-0.48;100.00;99341.78;4938501;28;20294;-81
2023/03/11 04:29:38;;;;;;;9.48;3.72;;;1.30;99.90;;;-0.51;100.00;99336.72;4980342;28;20117;-79
2023/03/11 04:32:05;;;;;;;11.35;4.88;;;1.30;99.90;;;-0.50;100.00;99347.00;5004780;22;20040;-81
2023/03/11 04:34:39;;;;;;;13.60;4.38;;;1.30;99.90;;;-0.51;100.00;99347.06;4968768;28;20120;-80
2023/03/11 04:37:08;;;;;;;9.38;4.28;;;1.30;99.90;;;-0.50;100.00;99359.06;4956438;28;20036;-80
2023/03/11 04:39:33;;;;;;;13.07;4.47;;;1.30;99.90;;;-0.50;100.00;99369.41;4951525;28;20087;-81
2023/03/11 04:42:04;;;;;;;7.07;3.92;;;1.30;99.90;;;-0.50;100.00;99372.00;4966242;28;20092;-81
2023/03/11 04:44:30;;;;;;;8.10;4.22;;;1.30;99.90;;;-0.52;100.00;99369.47;4952079;28;20049;-81
2023/03/11 04:46:56;;;;;;;7.13;3.50;;;1.30;99.90;;;-0.51;100.00;99383.25;4947734;28;20026;-80
2023/03/11 04:49:22;;;;;;;10.02;3.55;;;1.30;99.90;;;-0.52;100.00;99381.53;4942385;28;20116;-81
2023/03/11 04:51:57;;;;;;;6.72;3.25;;;1.30;99.90;;;-0.56;100.00;99379.91;4963282;22;20518;-80
2023/03/11 04:54:23;;;;;;;4.95;2.58;;;1.30;99.90;;;-0.55;100.00;99394.53;4920452;28;20030;-80
2023/03/11 04:56:48;;;;;;;22.95;5.53;;;1.30;99.90;;;-0.54;100.00;99394.53;4923502;28;20084;-79
2023/03/11 04:59:14;;;;;;;8.27;3.03;;;1.30;99.90;;;-0.55;100.00;99395.38;4944360;28;20520;-80
2023/03/11 05:01:40;;;;;;;5.90;2.78;;;1.30;99.90;;;-0.54;100.00;99411.75;4939559;28;20143;-81
2023/03/11 05:04:06;;;;;;;8.18;3.20;;;1.30;99.90;;;-0.51;100.00;99414.28;4896176;28;20129;-81
2023/03/11 05:06:39;;;;;;;9.32;3.28;;;1.30;99.90;;;-0.51;100.00;99422.03;4955711;28;20038;-80
2023/03/11 05:09:04;;;;;;;10.60;3.60;;;1.30;99.90;;;-0.50;100.00;99421.13;4926981;28;20037;-79
2023/03/11 05:11:30;;;;;;;11.60;4.15;;;1.30;99.90;;;-0.51;100.00;99428.06;4959785;22;21048;-81
2023/03/11 05:14:05;;;;;;;9.75;3.38;;;1.30;99.90;;;-0.48;100.00;99427.97;4995877;28;20088;-81
2023/03/11 05:16:31;;;;;;;9.50;4.03;;;1.40;99.90;;;-0.46;100.00;99435.72;4975571;28;20032;-81
2023/03/11 05:18:57;;;;;;;6.82;3.80;;;1.30;99.90;;;-0.48;100.00;99445.22;4964644;28;20043;-81
2023/03/11 05:21:23;;;;;;;6.68;3.47;;;1.40;99.90;;;-0.54;100.00;99453.13;4974659;28;20120;-80
2023/03/11 05:23:58;;;;;;;6.55;3.20;;;1.30;99.90;;;-0.54;100.00;99453.13;4956036;28;20044;-80
2023/03/11 05:26:24;;;;;;;8.55;3.35;;;1.30;99.90;;;-0.57;100.00;99458.38;5018786;28;20036;-80
2023/03/11 05:28:50;;;;;;;5.28;2.83;;;1.30;99.90;;;-0.60;100.00;99466.16;5008395;28;20330;-81
2023/03/11 05:31:15;;;;;;;6.75;2.95;;;1.20;99.90;;;-0.65;100.00;99477.50;4972687;28;20077;-80
2023/03/11 05:33:41;;;;;;;6.90;2.72;;;1.20;99.90;;;-0.73;100.00;99479.38;4985535;28;20116;-80
2023/03/11 05:36:13;;;;;;;6.25;3.05;;;1.10;99.90;;;-0.79;100.00;99471.75;4988531;28;20048;-80
2023/03/11 05:38:39;;;;;;;6.63;2.58;;;1.10;99.90;;;-0.81;100.00;99483.00;4996501;28;20037;-81
2023/03/11 05:41:05;;;;;;;6.63;2.78;;;1.10;99.90;;;-0.83;100.00;99475.25;4986349;28;20416;-79
2023/03/11 05:43:31;;;;;;;6.80;3.08;;;1.10;99.90;;;-0.80;100.00;99482.09;4995231;28;20461;-80
2023/03/11 05:45:56;;;;;;;5.32;3.15;;;1.10;99.90;;;-0.81;100.00;99483.84;4989863;28;20024;-81
2023/03/11 05:48:32;;;;;;;;;;;;;;;;;;;;;
2023/03/11 05:50:58;;;;;;;8.98;3.70;;;1.10;99.90;;;-0.81;100.00;99498.50;4972718;28;20871;-80
2023/03/11 05:53:24;;;;;;;5.95;2.53;;;1.10;99.90;;;-0.83;100.00;99508.88;4976954;28;20033;-80
2023/03/11 05:56:00;;;;;;;5.85;3.22;;;1.10;99.90;;;-0.80;100.00;99519.13;5019105;28;20313;-80
2023/03/11 05:58:27;;;;;;;9.15;4.53;;;1.00;99.90;;;-0.76;100.00;99523.34;4985658;28;20032;-79
2023/03/11 06:00:53;;;;;;;6.70;3.10;;;1.10;99.90;;;-0.79;100.00;99526.00;4972745;28;20060;-80
2023/03/11 06:03:25;;;;;;;7.88;3.88;;;1.10;99.90;;;-0.80;100.00;99528.63;4965033;28;20044;-80
2023/03/11 06:05:51;;;;;;;5.18;2.97;;;1.00;99.90;;;-0.87;100.00;99540.81;4980379;28;20041;-81
2023/03/11 06:08:18;;;;;;;5.55;2.88;;;1.00;99.90;;;-0.86;100.00;99535.63;4994731;28;20550;-80
2023/03/11 06:10:44;;;;;;;8.57;3.20;;;1.00;99.90;;;-0.87;100.00;99546.81;5002001;28;20033;-78
2023/03/11 06:13:10;;;;;;;7.80;2.67;;;1.00;99.90;;;-0.82;100.00;99549.34;5000030;28;20037;-80
2023/03/11 06:15:39;;;;;;;8.73;4.22;;;1.40;99.90;;;-0.79;100.00;99556.19;4957255;28;20512;-80
2023/03/11 06:18:05;;;;;;;7.45;3.33;;;1.00;99.90;;;-0.82;100.00;99559.69;4948992;28;20107;-80
2023/03/11 06:20:31;;;;;;;9.43;4.20;;;1.00;99.90;;;-0.82;100.00;99567.44;4998281;28;20254;-79
2023/03/11 06:23:00;;;;;;;7.55;3.15;;;1.00;99.90;;;-0.80;100.00;99564.81;4997066;28;20035;-79
2023/03/11 06:25:26;;;;;;;8.75;3.85;;;1.00;99.90;;;-0.80;100.00;99563.06;4982475;28;20039;-79
2023/03/11 06:27:57;;;;;;;5.45;3.53;;;1.00;99.90;;;-0.80;100.00;99576.00;4948911;28;20034;-79
2023/03/11 06:30:23;;;;;;;10.75;3.70;;;1.00;99.90;;;-0.80;100.00;99588.06;4966817;28;20102;-79
2023/03/11 06:32:51;;;;;;;4.07;2.40;;;1.00;99.90;;;-0.85;100.00;99588.16;4980083;23;20041;-79
2023/03/11 06:35:17;;;;;;;9.18;4.63;;;1.00;99.90;;;-0.81;100.00;99592.41;4991480;28;20116;-79
2023/03/11 06:37:48;;;;;;;6.60;4.10;;;1.00;99.90;;;-0.84;100.00;99601.06;4988014;28;20105;-79
2023/03/11 06:40:14;;;;;;;8.15;3.63;;;1.00;99.90;;;-0.85;100.00;99603.66;4976339;28;20046;-79
2023/03/11 06:42:40;;;;;;;8.55;4.13;;;1.00;99.90;;;-0.81;99.86;99620.81;4997132;28;20036;-79
2023/03/11 06:45:07;;;;;;;10.10;4.95;;;1.00;99.90;;;-0.80;99.85;99613.91;4985157;28;20041;-78
2023/03/11 06:47:32;;;;;;;12.27;4.45;;;1.00;99.90;;;-0.78;100.00;99613.00;4951604;28;20037;-79
2023/03/11 06:50:06;;;;;;;7.57;4.05;;;1.00;99.90;;;-0.81;99.97;99614.81;4946108;28;20046;-80
2023/03/11 06:52:32;;;;;;;12.35;4.47;;;1.00;99.90;;;-0.79;100.00;99623.41;5009147;28;20029;-79
2023/03/11 06:54:58;;;;;;;9.05;4.82;;;1.00;99.90;;;-0.74;100.00;99629.31;4978782;28;20047;-79
2023/03/11 06:57:23;;;;;;;7.25;4.35;;;1.00;99.90;;;-0.68;100.00;99642.13;4970673;28;20116;-78
2023/03/11 06:59:49;;;;;;;7.50;4.18;;;1.00;99.90;;;-0.67;100.00;99642.13;5000001;28;20487;-79
2023/03/11 07:02:20;;;;;;;9.07;3.53;;;1.00;99.90;;;-0.68;100.00;99653.31;4970203;28;20118;-79
2023/03/11 07:04:48;;;;;;;9.32;4.57;;;1.10;99.90;;;-0.59;100.00;99654.06;4985341;28;20053;-79
2023/03/11 07:07:14;;;;;;;8.05;3.63;;;1.10;99.90;;;-0.53;99.89;99661.69;4982897;28;20102;-79
2023/03/11 07:09:40;;;;;;;8.52;4.03;;;1.10;99.90;;;-0.44;98.74;99664.09;4966762;28;20053;-80
2023/03/11 07:12:17;;;;;;;8.52;4.55;;;1.20;99.90;;;0.07;98.44;99668.31;4976589;28;20033;-78
2023/03/11 07:14:43;;;;;;;5.00;3.22;;;1.50;99.90;;;1.61;95.17;99688.88;4917870;28;20490;-79
2023/03/11 07:17:08;;;;;;;8.65;3.10;;;1.80;99.90;;;1.23;90.62;99694.16;5019673;28;20116;-80
2023/03/11 07:19:43;;;;;;;8.60;3.47;;;2.10;99.90;;;3.64;86.97;99712.16;4991966;28;20633;-80
2023/03/11 07:22:09;;;;;;;9.52;4.20;;;3.20;99.90;;;8.31;72.74;99726.72;4965651;28;20056;-81
2023/03/11 07:24:35;;;;;;;11.77;4.18;;;4.80;99.90;;;10.45;61.51;99729.38;4987116;28;20504;-79
2023/03/11 07:27:01;;;;;;;5.93;3.05;;;6.40;99.90;;;11.76;56.56;99752.56;4986020;28;20058;-81
2023/03/11 07:29:32;;;;;;;9.23;4.55;;;7.70;99.90;;;12.74;53.83;99771.38;5005039;28;20041;-82
2023/03/11 07:31:58;;;;;;;10.48;5.20;;;9.00;99.90;;;13.70;51.87;99795.28;4984260;28;20093;-81
2023/03/11 07:34:23;;;;;;;8.80;3.80;;;10.00;99.90;;;14.07;50.64;99800.47;4990577;28;20530;-82
2023/03/11 07:36:49;;;;;;;7.25;4.00;;;10.60;99.90;;;14.03;50.37;99806.09;4971624;28;20117;-82
2023/03/11 07:39:17;;;;;;;9.00;2.85;;;11.00;99.90;;;13.62;49.82;99804.75;4966889;28;20059;-81
2023/03/11 07:41:48;;;;;;;3.22;2.35;;;10.90;99.90;;;12.72;50.87;99808.50;4962280;28;20028;-81
2023/03/11 07:44:15;;;;;;;6.05;2.63;;;10.70;99.90;;;12.15;51.64;99810.72;4979218;28;20033;-80
2023/03/11 07:46:42;;;;;;;8.93;3.45;;;10.80;99.90;;;12.19;51.66;99820.13;4967558;28;20512;-82
2023/03/11 07:49:08;;;;;;;5.53;3.20;;;10.80;99.90;;;11.13;52.81;99806.75;4971109;28;20025;-82
2023/03/11 07:51:41;;;;;;;7.43;3.47;;;10.40;99.90;;;10.75;53.84;99809.16;4965666;28;20025;-79
2023/03/11 07:54:07;;;;;;;4.68;2.95;;;10.30;99.90;;;10.99;53.58;99815.56;5009826;28;20042;-81
2023/03/11 07:56:33;;;;;;;6.78;2.97;;;10.20;99.90;;;10.66;54.38;99819.31;4955176;28;20072;-81
2023/03/11 07:59:02;;;;;;;4.53;2.28;;;10.10;99.90;;;9.99;54.80;99816.28;4955610;28;20036;-80
2023/03/11 08:01:35;;;;;;;7.97;2.72;;;10.10;99.90;;;10.30;54.85;99825.03;4980495;28;20045;-81
2023/03/11 08:04:04;;;;;;;4.13;2.33;;;10.00;99.90;;;10.02;54.94;99823.16;4994355;28;20053;-80
2023/03/11 08:06:41;;;;;;;4.07;2.15;;;;;;;7.95;57.08;99815.09;4992175;28;20052;-81
2023/03/11 08:09:08;;;;;;;4.30;2.75;;;9.10;99.90;;;8.50;58.47;99813.22;4980712;28;20032;-80
2023/03/11 08:11:42;;;;;;;5.68;2.90;;;9.20;99.90;;;8.71;57.71;99827.81;4934144;28;20026;-81
2023/03/11 08:14:08;;;;;;;4.00;2.50;;;9.30;99.90;;;8.66;58.23;99835.09;4945767;28;20038;-81
2023/03/11 08:16:34;;;;;;;5.40;2.67;;;9.60;99.90;;;8.93;57.56;99838.00;4972065;28;20049;-80
2023/03/11 08:19:00;;;;;;;4.68;2.83;;;9.80;99.90;;;9.12;57.22;99848.38;4976169;28;20063;-80
2023/03/11 08:21:31;;;;;;;9.73;3.72;;;10.10;99.90;;;9.42;57.12;99863.38;4948545;28;20048;-81
2023/03/11 08:24:00;;;;;;;6.38;2.58;;;10.50;99.90;;;9.81;56.79;99873.44;4979850;28;20623;-81
2023/03/11 08:26:30;;;;;;;4.18;2.22;;;10.60;99.90;;;8.83;57.20;99858.66;4985521;28;20041;-80
2023/03/11 08:29:03;;;;;;;4.40;2.45;;;9.80;99.90;;;7.37;60.59;99852.00;4991618;28;20039;-80
2023/03/11 08:31:33;;;;;;;4.65;2.22;;;9.10;99.90;;;6.40;62.22;99837.22;4986794;28;20037;-84
2023/03/11 08:34:09;;;;;;;7.20;2.78;;;8.10;99.90;;;5.10;65.19;99828.53;4977120;28;20022;-82
2023/03/11 08:36:35;;;;;;;5.38;2.30;;;6.90;99.90;;;4.17;67.60;99835.38;5016878;28;20068;-81
2023/03/11 08:39:01;;;;;;;4.07;2.20;;;6.00;99.90;;;3.50;69.92;99841.94;4979759;28;20548;-80
2023/03/11 08:41:29;;;;;;;4.70;2.13;;;5.30;99.90;;;3.14;71.41;99847.38;4973328;28;20034;-81
2023/03/11 08:43:58;;;;;;;3.20;1.88;;;5.00;99.90;;;3.08;72.56;99851.00;4944429;28;20025;-81
2023/03/11 08:46:43;;;;;;;4.97;2.55;;;4.60;99.90;;;2.67;73.08;99853.03;4941326;28;20136;-80
2023/03/11 08:49:09;;;;;;;6.55;2.53;;;4.50;99.90;;;2.81;73.93;99859.63;5025265;28;20120;-81
2023/03/11 08:51:41;;;;;;;6.45;3.33;;;4.30;99.90;;;2.71;74.55;99858.16;5002922;28;20024;-82
2023/03/11 08:54:07;;;;;;;6.40;3.10;;;4.60;99.90;;;3.96;73.13;99876.06;4969762;28;20098;-81
2023/03/11 08:56:33;;;;;;;9.13;3.53;;;5.60;99.90;;;5.29;70.77;99879.13;4979318;28;20124;-79
2023/03/11 08:58:59;;;;;;;4.13;2.33;;;6.50;99.90;;;5.73;66.88;99889.56;5011388;28;20043;-80
2023/03/11 09:01:25;;;;;;;7.30;3.30;;;7.00;99.90;;;6.19;66.01;99897.31;4984255;28;20120;-80
2023/03/11 09:03:56;;;;;;;5.70;2.70;;;7.50;99.90;;;6.47;64.68;99907.47;4997753;28;20055;-78
2023/03/11 09:06:23;;;;;;;6.88;3.20;;;7.90;99.90;;;6.91;63.55;99906.44;4957603;28;20048;-77
2023/03/11 09:08:52;;;;;;;3.55;2.30;;;8.20;99.90;;;7.16;62.73;99919.28;4969978;28;20059;-80
2023/03/11 09:11:20;;;;;;;8.45;2.38;;;8.00;99.90;;;6.19;63.31;99906.94;4982536;28;20039;-79
2023/03/11 09:13:50;;;;;;;4.07;2.33;;;7.50;99.90;;;5.63;65.03;99903.91;4990964;28;20115;-78
2023/03/11 09:16:28;;;;;;;6.30;2.20;;;7.00;99.90;;;5.39;65.88;99905.72;4992446;28;20095;-78
2023/03/11 09:18:59;;;;;;;4.75;1.90;;;6.40;99.90;;;4.51;67.17;99906.31;4988261;28;20034;-78
2023/03/11 09:21:25;;;;;;;4.93;1.98;;;5.80;99.90;;;3.87;68.61;99901.47;5017970;28;20033;-78
2023/03/11 09:23:56;;;;;;;3.97;1.58;;;5.30;99.90;;;3.56;68.89;99913.75;4997253;28;20545;-80
2023/03/11 09:26:22;;;;;;;4.00;1.77;;;5.10;99.90;;;3.51;69.94;99910.44;4998252;28;20053;-78
2023/03/11 09:28:48;;;;;;;2.75;1.30;;;4.90;99.90;;;3.19;68.96;99912.25;4979995;28;20533;-80
2023/03/11 09:31:15;;;;;;;2.22;1.40;;;4.60;99.90;;;2.81;69.49;99911.63;5018431;28;20037;-78
2023/03/11 09:33:51;;;;;;;3.60;1.83;;;4.40;99.90;;;2.59;70.76;99917.41;4986508;28;20033;-78
2023/03/11 09:36:20;;;;;;;3.70;1.35;;;4.20;99.90;;;2.36;71.18;99925.78;4981512;28;20040;-78
2023/03/11 09:38:57;;;;;;;2.72;1.60;;;4.00;99.90;;;2.19;73.01;99926.22;4982456;28;20036;-78
2023/03/11 09:41:53;;;;;;;3.88;1.58;;;3.80;99.90;;;1.99;73.88;99934.50;4982877;28;20696;-78
2023/03/11 09:45:07;;;;;;;4.60;1.60;;;3.60;99.90;;;1.99;74.71;99941.44;5016864;28;20032;-80
2023/03/11 09:48:04;;;;;;;4.60;1.75;;;3.70;99.90;;;2.22;75.59;99939.09;5007605;28;20045;-78
2023/03/11 09:50:57;;;;;;;3.35;2.05;;;3.70;99.90;;;2.29;75.91;99947.63;5031733;28;20124;-79
2023/03/11 09:53:43;;;;;;;5.30;2.15;;;3.70;99.90;;;2.30;75.97;99956.28;5015415;28;20125;-78
2023/03/11 09:56:21;;;;;;;1.98;1.30;;;3.60;99.90;;;2.04;75.84;99952.56;5012331;28;20033;-79
2023/03/11 09:58:57;;;;;;;3.08;2.03;;;3.50;99.90;;;1.89;75.97;99958.97;5010245;28;21434;-79
2023/03/11 10:01:33;;;;;;;3.65;1.58;;;3.50;99.90;;;1.88;76.29;99956.41;4989160;28;20037;-79
2023/03/11 10:04:09;;;;;;;3.92;1.92;;;3.50;99.90;;;1.96;76.94;99963.13;4994449;28;20040;-78
2023/03/11 10:06:44;;;;;;;2.85;1.70;;;3.50;99.90;;;2.06;76.71;99968.97;4987784;28;20067;-77
2023/03/11 10:09:18;;;;;;;2.17;1.50;;;3.50;99.90;;;2.11;75.68;99968.84;4954172;28;20038;-79
2023/03/11 10:12:23;;;;;;;3.40;2.00;;;3.60;99.90;;;2.38;75.40;99973.38;5014645;28;20034;-77
2023/03/11 10:15:08;;;;;;;4.32;2.35;;;3.90;99.90;;;2.76;75.07;99988.88;5000496;28;20041;-78
2023/03/11 10:18:17;;;;;;;9.45;1.92;;;4.10;99.90;;;2.78;74.47;99987.09;5013474;28;20034;-77
2023/03/11 10:20:52;;;;;;;4.70;1.70;;;4.10;99.90;;;2.76;74.17;99988.88;5003994;28;20131;-78
2023/03/11 10:23:48;;;;;;;2.90;1.60;;;4.20;99.90;;;3.04;74.71;99995.03;5007762;28;20048;-78
2023/03/11 10:26:35;;;;;;;3.43;2.57;;;4.50;99.90;;;3.53;73.16;99994.56;5013328;28;20033;-80
2023/03/11 10:29:29;;;;;;;3.65;1.80;;;4.70;99.90;;;3.76;72.38;100004.25;4980027;28;20494;-80
2023/03/11 10:32:17;;;;;;;8.60;1.92;;;4.90;99.90;;;3.78;71.82;100003.34;4963106;28;20044;-80
2023/03/11 10:35:08;;;;;;;6.95;2.78;;;4.90;99.90;;;3.81;72.76;100015.41;4964408;28;20092;-82
2023/03/11 10:37:51;;;;;;;10.05;3.35;;;5.10;99.90;;;4.23;73.78;100013.25;4932687;28;20037;-80
2023/03/11 10:40:34;;;;;;;2.97;1.95;;;5.30;99.90;;;4.10;72.90;100009.28;4966245;28;20048;-82